sensor_id;sensor_type;location;lat;lon;timestamp;P1;durP1;ratioP1;P2;durP2;ratioP2
27365;SDS011;14837;57.148;-2.144;2024-01-06T00:01:15;2.20;;;1.33;;
27365;SDS011;14837;57.148;-2.144;2024-01-06T00:03:43;2.85;;;1.30;;
27365;SDS011;14837;57.148;-2.144;2024-01-06T00:06:13;2.42;;;1.52;;
27365;SDS011;14837;57.148;-2.144;2024-01-06T00:08:39;4.10;;;1.77;;
27365;SDS011;14837;57.148;-2.144;2024-01-06T00:11:06;2.13;;;1.80;;
27365;SDS011;14837;57.148;-2.144;2024-01-06T00:13:32;5.40;;;4.90;;
27365;SDS011;14837;57.148;-2.144;2024-01-06T00:16:00;3.85;;;3.28;;
27365;SDS011;14837;57.148;-2.144;2024-01-06T00:18:26;4.13;;;2.80;;
27365;SDS011;14837;57.148;-2.144;2024-01-06T00:20:53;6.38;;;1.42;;
27365;SDS011;14837;57.148;-2.144;2024-01-06T00:23:20;4.35;;;2.90;;
27365;SDS011;14837;57.148;-2.144;2024-01-06T00:25:46;1.17;;;1.00;;
27365;SDS011;14837;57.148;-2.144;2024-01-06T00:28:13;2.17;;;1.50;;
27365;SDS011;14837;57.148;-2.144;2024-01-06T00:30:39;1.60;;;1.15;;
27365;SDS011;14837;57.148;-2.144;2024-01-06T00:33:06;3.05;;;2.72;;
27365;SDS011;14837;57.148;-2.144;2024-01-06T00:35:33;3.53;;;1.70;;
27365;SDS011;14837;57.148;-2.144;2024-01-06T00:37:59;2.50;;;1.85;;
27365;SDS011;14837;57.148;-2.144;2024-01-06T00:40:27;3.33;;;1.38;;
27365;SDS011;14837;57.148;-2.144;2024-01-06T00:42:53;2.38;;;1.30;;
27365;SDS011;14837;57.148;-2.144;2024-01-06T00:45:20;1.70;;;1.10;;
27365;SDS011;14837;57.148;-2.144;2024-01-06T00:47:47;1.50;;;0.95;;
27365;SDS011;14837;57.148;-2.144;2024-01-06T00:50:14;2.28;;;1.60;;
27365;SDS011;14837;57.148;-2.144;2024-01-06T00:52:41;2.58;;;1.60;;
27365;SDS011;14837;57.148;-2.144;2024-01-06T00:55:07;3.58;;;2.25;;
27365;SDS011;14837;57.148;-2.144;2024-01-06T00:57:34;4.18;;;1.65;;
27365;SDS011;14837;57.148;-2.144;2024-01-06T01:00:01;3.05;;;1.13;;
27365;SDS011;14837;57.148;-2.144;2024-01-06T01:02:27;1.85;;;0.85;;
27365;SDS011;14837;57.148;-2.144;2024-01-06T01:04:54;2.22;;;1.00;;
27365;SDS011;14837;57.148;-2.144;2024-01-06T01:07:20;1.20;;;0.85;;
27365;SDS011;14837;57.148;-2.144;2024-01-06T01:09:47;2.22;;;0.90;;
27365;SDS011;14837;57.148;-2.144;2024-01-06T01:12:13;1.45;;;1.00;;
27365;SDS011;14837;57.148;-2.144;2024-01-06T01:14:40;1.33;;;0.80;;
27365;SDS011;14837;57.148;-2.144;2024-01-06T01:17:07;1.60;;;1.40;;
27365;SDS011;14837;57.148;-2.144;2024-01-06T01:19:33;1.35;;;1.05;;
27365;SDS011;14837;57.148;-2.144;2024-01-06T01:22:00;1.35;;;0.95;;
27365;SDS011;14837;57.148;-2.144;2024-01-06T01:24:26;1.40;;;0.88;;
27365;SDS011;14837;57.148;-2.144;2024-01-06T01:26:53;6.90;;;6.30;;
27365;SDS011;14837;57.148;-2.144;2024-01-06T01:29:20;2.05;;;1.55;;
27365;SDS011;14837;57.148;-2.144;2024-01-06T01:31:47;1.80;;;1.17;;
27365;SDS011;14837;57.148;-2.144;2024-01-06T01:34:14;1.30;;;1.00;;
27365;SDS011;14837;57.148;-2.144;2024-01-06T01:36:41;2.42;;;1.08;;
27365;SDS011;14837;57.148;-2.144;2024-01-06T01:39:07;1.13;;;0.82;;
27365;SDS011;14837;57.148;-2.144;2024-01-06T01:41:34;2.28;;;1.40;;
27365;SDS011;14837;57.148;-2.144;2024-01-06T01:44:01;1.15;;;0.73;;
27365;SDS011;14837;57.148;-2.144;2024-01-06T01:46:28;1.77;;;1.10;;
27365;SDS011;14837;57.148;-2.144;2024-01-06T01:48:55;1.27;;;1.00;;
27365;SDS011;14837;57.148;-2.144;2024-01-06T01:51:23;2.33;;;1.00;;
27365;SDS011;14837;57.148;-2.144;2024-01-06T01:53:50;2.63;;;0.77;;
27365;SDS011;14837;57.148;-2.144;2024-01-06T01:56:17;1.95;;;0.90;;
27365;SDS011;14837;57.148;-2.144;2024-01-06T01:58:44;1.70;;;0.68;;
27365;SDS011;14837;57.148;-2.144;2024-01-06T02:01:10;1.17;;;0.70;;
27365;SDS011;14837;57.148;-2.144;2024-01-06T02:03:37;3.85;;;1.52;;
27365;SDS011;14837;57.148;-2.144;2024-01-06T02:06:04;1.52;;;0.88;;
27365;SDS011;14837;57.148;-2.144;2024-01-06T02:08:31;1.75;;;0.80;;
27365;SDS011;14837;57.148;-2.144;2024-01-06T02:10:57;1.73;;;0.70;;
27365;SDS011;14837;57.148;-2.144;2024-01-06T02:13:24;1.38;;;0.70;;
27365;SDS011;14837;57.148;-2.144;2024-01-06T02:15:50;0.98;;;0.70;;
27365;SDS011;14837;57.148;-2.144;2024-01-06T02:18:19;1.05;;;0.75;;
27365;SDS011;14837;57.148;-2.144;2024-01-06T02:20:46;1.20;;;0.70;;
27365;SDS011;14837;57.148;-2.144;2024-01-06T02:23:13;2.15;;;0.80;;
27365;SDS011;14837;57.148;-2.144;2024-01-06T02:25:39;0.95;;;0.65;;
27365;SDS011;14837;57.148;-2.144;2024-01-06T02:28:06;1.73;;;1.23;;
27365;SDS011;14837;57.148;-2.144;2024-01-06T02:30:32;1.55;;;0.82;;
27365;SDS011;14837;57.148;-2.144;2024-01-06T02:32:59;1.40;;;0.88;;
27365;SDS011;14837;57.148;-2.144;2024-01-06T02:35:26;1.67;;;0.90;;
27365;SDS011;14837;57.148;-2.144;2024-01-06T02:37:52;1.27;;;0.70;;
27365;SDS011;14837;57.148;-2.144;2024-01-06T02:40:19;1.40;;;0.70;;
27365;SDS011;14837;57.148;-2.144;2024-01-06T02:42:45;1.00;;;0.63;;
27365;SDS011;14837;57.148;-2.144;2024-01-06T02:45:12;1.20;;;0.80;;
27365;SDS011;14837;57.148;-2.144;2024-01-06T02:47:38;2.42;;;0.90;;
27365;SDS011;14837;57.148;-2.144;2024-01-06T02:50:05;1.23;;;0.85;;
27365;SDS011;14837;57.148;-2.144;2024-01-06T02:52:32;1.40;;;0.77;;
27365;SDS011;14837;57.148;-2.144;2024-01-06T02:54:58;3.25;;;1.50;;
27365;SDS011;14837;57.148;-2.144;2024-01-06T02:57:25;4.22;;;3.13;;
27365;SDS011;14837;57.148;-2.144;2024-01-06T02:59:52;5.40;;;4.95;;
27365;SDS011;14837;57.148;-2.144;2024-01-06T03:02:18;6.43;;;5.82;;
27365;SDS011;14837;57.148;-2.144;2024-01-06T03:04:45;6.95;;;5.90;;
27365;SDS011;14837;57.148;-2.144;2024-01-06T03:07:11;5.80;;;4.93;;
27365;SDS011;14837;57.148;-2.144;2024-01-06T03:09:38;5.70;;;4.68;;
27365;SDS011;14837;57.148;-2.144;2024-01-06T03:12:07;5.55;;;5.05;;
27365;SDS011;14837;57.148;-2.144;2024-01-06T03:14:35;3.60;;;3.30;;
27365;SDS011;14837;57.148;-2.144;2024-01-06T03:17:01;5.97;;;3.78;;
27365;SDS011;14837;57.148;-2.144;2024-01-06T03:19:29;3.50;;;3.20;;
27365;SDS011;14837;57.148;-2.144;2024-01-06T03:21:56;2.28;;;2.03;;
27365;SDS011;14837;57.148;-2.144;2024-01-06T03:24:23;2.13;;;1.92;;
27365;SDS011;14837;57.148;-2.144;2024-01-06T03:26:50;2.20;;;1.55;;
27365;SDS011;14837;57.148;-2.144;2024-01-06T03:29:16;2.60;;;0.90;;
27365;SDS011;14837;57.148;-2.144;2024-01-06T03:31:43;1.17;;;0.90;;
27365;SDS011;14837;57.148;-2.144;2024-01-06T03:34:10;1.65;;;0.80;;
27365;SDS011;14837;57.148;-2.144;2024-01-06T03:36:40;1.30;;;0.75;;
27365;SDS011;14837;57.148;-2.144;2024-01-06T03:39:07;3.22;;;0.85;;
27365;SDS011;14837;57.148;-2.144;2024-01-06T03:41:34;1.33;;;0.93;;
27365;SDS011;14837;57.148;-2.144;2024-01-06T03:44:00;2.03;;;0.93;;
27365;SDS011;14837;57.148;-2.144;2024-01-06T03:46:27;1.45;;;0.70;;
27365;SDS011;14837;57.148;-2.144;2024-01-06T03:48:53;2.25;;;0.90;;
27365;SDS011;14837;57.148;-2.144;2024-01-06T03:51:20;1.90;;;0.70;;
27365;SDS011;14837;57.148;-2.144;2024-01-06T03:53:48;1.20;;;0.90;;
27365;SDS011;14837;57.148;-2.144;2024-01-06T03:56:15;1.25;;;0.82;;
27365;SDS011;14837;57.148;-2.144;2024-01-06T03:58:41;1.25;;;0.80;;
27365;SDS011;14837;57.148;-2.144;2024-01-06T04:01:08;1.70;;;0.85;;
27365;SDS011;14837;57.148;-2.144;2024-01-06T04:03:34;1.08;;;0.80;;
27365;SDS011;14837;57.148;-2.144;2024-01-06T04:06:01;1.02;;;0.70;;
27365;SDS011;14837;57.148;-2.144;2024-01-06T04:08:28;1.80;;;1.25;;
27365;SDS011;14837;57.148;-2.144;2024-01-06T04:10:54;2.47;;;0.73;;
27365;SDS011;14837;57.148;-2.144;2024-01-06T04:13:21;2.13;;;0.98;;
27365;SDS011;14837;57.148;-2.144;2024-01-06T04:15:48;1.73;;;0.93;;
27365;SDS011;14837;57.148;-2.144;2024-01-06T04:18:14;1.50;;;0.88;;
27365;SDS011;14837;57.148;-2.144;2024-01-06T04:20:41;1.55;;;0.75;;
27365;SDS011;14837;57.148;-2.144;2024-01-06T04:23:08;1.60;;;0.90;;
27365;SDS011;14837;57.148;-2.144;2024-01-06T04:25:34;2.20;;;1.00;;
27365;SDS011;14837;57.148;-2.144;2024-01-06T04:28:01;0.93;;;0.70;;
27365;SDS011;14837;57.148;-2.144;2024-01-06T04:30:27;0.50;;;0.50;;
27365;SDS011;14837;57.148;-2.144;2024-01-06T04:32:54;2.03;;;0.98;;
27365;SDS011;14837;57.148;-2.144;2024-01-06T04:35:20;3.75;;;0.90;;
27365;SDS011;14837;57.148;-2.144;2024-01-06T04:37:48;1.00;;;0.70;;
27365;SDS011;14837;57.148;-2.144;2024-01-06T04:40:14;2.10;;;0.80;;
27365;SDS011;14837;57.148;-2.144;2024-01-06T04:42:41;0.82;;;0.60;;
27365;SDS011;14837;57.148;-2.144;2024-01-06T04:45:08;0.73;;;0.60;;
27365;SDS011;14837;57.148;-2.144;2024-01-06T04:47:35;0.77;;;0.63;;
27365;SDS011;14837;57.148;-2.144;2024-01-06T04:50:01;1.23;;;0.80;;
27365;SDS011;14837;57.148;-2.144;2024-01-06T04:52:28;0.95;;;0.47;;
27365;SDS011;14837;57.148;-2.144;2024-01-06T04:54:56;1.25;;;0.80;;
27365;SDS011;14837;57.148;-2.144;2024-01-06T04:57:22;0.60;;;0.60;;
27365;SDS011;14837;57.148;-2.144;2024-01-06T04:59:49;0.60;;;0.60;;
27365;SDS011;14837;57.148;-2.144;2024-01-06T05:02:15;1.80;;;0.70;;
27365;SDS011;14837;57.148;-2.144;2024-01-06T05:04:42;1.48;;;0.70;;
27365;SDS011;14837;57.148;-2.144;2024-01-06T05:07:09;2.50;;;0.75;;
27365;SDS011;14837;57.148;-2.144;2024-01-06T05:09:35;2.25;;;0.93;;
27365;SDS011;14837;57.148;-2.144;2024-01-06T05:12:02;2.30;;;0.80;;
27365;SDS011;14837;57.148;-2.144;2024-01-06T05:14:29;0.90;;;0.60;;
27365;SDS011;14837;57.148;-2.144;2024-01-06T05:16:55;0.90;;;0.68;;
27365;SDS011;14837;57.148;-2.144;2024-01-06T05:19:22;0.93;;;0.63;;
27365;SDS011;14837;57.148;-2.144;2024-01-06T05:21:49;0.65;;;0.65;;
27365;SDS011;14837;57.148;-2.144;2024-01-06T05:24:17;2.35;;;0.95;;
27365;SDS011;14837;57.148;-2.144;2024-01-06T05:26:43;1.23;;;0.98;;
27365;SDS011;14837;57.148;-2.144;2024-01-06T05:29:10;0.80;;;0.65;;
27365;SDS011;14837;57.148;-2.144;2024-01-06T05:31:36;1.33;;;0.70;;
27365;SDS011;14837;57.148;-2.144;2024-01-06T05:34:03;1.95;;;0.80;;
27365;SDS011;14837;57.148;-2.144;2024-01-06T05:36:31;1.02;;;0.77;;
27365;SDS011;14837;57.148;-2.144;2024-01-06T05:38:57;2.28;;;0.80;;
27365;SDS011;14837;57.148;-2.144;2024-01-06T05:41:24;1.35;;;0.90;;
27365;SDS011;14837;57.148;-2.144;2024-01-06T05:43:50;2.72;;;0.93;;
27365;SDS011;14837;57.148;-2.144;2024-01-06T05:46:23;0.52;;;0.50;;
27365;SDS011;14837;57.148;-2.144;2024-01-06T05:48:50;1.45;;;1.00;;
27365;SDS011;14837;57.148;-2.144;2024-01-06T05:51:17;2.22;;;1.00;;
27365;SDS011;14837;57.148;-2.144;2024-01-06T05:53:43;1.42;;;0.73;;
27365;SDS011;14837;57.148;-2.144;2024-01-06T05:56:10;2.67;;;0.80;;
27365;SDS011;14837;57.148;-2.144;2024-01-06T05:58:37;2.10;;;1.00;;
27365;SDS011;14837;57.148;-2.144;2024-01-06T06:01:03;1.77;;;0.95;;
27365;SDS011;14837;57.148;-2.144;2024-01-06T06:03:30;1.40;;;0.80;;
27365;SDS011;14837;57.148;-2.144;2024-01-06T06:05:57;1.65;;;1.08;;
27365;SDS011;14837;57.148;-2.144;2024-01-06T06:08:24;1.42;;;1.08;;
27365;SDS011;14837;57.148;-2.144;2024-01-06T06:10:50;0.68;;;0.68;;
27365;SDS011;14837;57.148;-2.144;2024-01-06T06:13:28;2.15;;;0.90;;
27365;SDS011;14837;57.148;-2.144;2024-01-06T06:15:55;1.20;;;0.80;;
27365;SDS011;14837;57.148;-2.144;2024-01-06T06:18:22;2.58;;;0.98;;
27365;SDS011;14837;57.148;-2.144;2024-01-06T06:20:49;1.23;;;0.80;;
27365;SDS011;14837;57.148;-2.144;2024-01-06T06:23:15;1.30;;;0.90;;
27365;SDS011;14837;57.148;-2.144;2024-01-06T06:25:42;1.25;;;0.93;;
27365;SDS011;14837;57.148;-2.144;2024-01-06T06:28:09;0.90;;;0.80;;
27365;SDS011;14837;57.148;-2.144;2024-01-06T06:30:35;1.85;;;1.25;;
27365;SDS011;14837;57.148;-2.144;2024-01-06T06:33:02;1.73;;;1.13;;
27365;SDS011;14837;57.148;-2.144;2024-01-06T06:35:29;1.38;;;0.60;;
27365;SDS011;14837;57.148;-2.144;2024-01-06T06:37:55;3.45;;;1.20;;
27365;SDS011;14837;57.148;-2.144;2024-01-06T06:40:22;0.77;;;0.60;;
27365;SDS011;14837;57.148;-2.144;2024-01-06T06:42:48;1.35;;;1.00;;
27365;SDS011;14837;57.148;-2.144;2024-01-06T06:45:15;2.67;;;1.10;;
27365;SDS011;14837;57.148;-2.144;2024-01-06T06:47:41;1.30;;;1.20;;
27365;SDS011;14837;57.148;-2.144;2024-01-06T06:50:08;3.05;;;1.15;;
27365;SDS011;14837;57.148;-2.144;2024-01-06T06:52:35;2.20;;;1.67;;
27365;SDS011;14837;57.148;-2.144;2024-01-06T06:55:02;3.22;;;1.33;;
27365;SDS011;14837;57.148;-2.144;2024-01-06T06:57:29;1.08;;;0.93;;
27365;SDS011;14837;57.148;-2.144;2024-01-06T06:59:55;2.78;;;1.20;;
27365;SDS011;14837;57.148;-2.144;2024-01-06T07:02:22;2.15;;;1.20;;
27365;SDS011;14837;57.148;-2.144;2024-01-06T07:04:49;1.20;;;0.85;;
27365;SDS011;14837;57.148;-2.144;2024-01-06T07:07:16;0.73;;;0.73;;
27365;SDS011;14837;57.148;-2.144;2024-01-06T07:09:42;1.40;;;1.13;;
27365;SDS011;14837;57.148;-2.144;2024-01-06T07:12:09;1.80;;;1.20;;
27365;SDS011;14837;57.148;-2.144;2024-01-06T07:14:35;2.50;;;1.20;;
27365;SDS011;14837;57.148;-2.144;2024-01-06T07:17:03;1.13;;;0.80;;
27365;SDS011;14837;57.148;-2.144;2024-01-06T07:19:31;0.85;;;0.80;;
27365;SDS011;14837;57.148;-2.144;2024-01-06T07:21:58;1.50;;;0.65;;
27365;SDS011;14837;57.148;-2.144;2024-01-06T07:24:25;1.80;;;0.90;;
27365;SDS011;14837;57.148;-2.144;2024-01-06T07:26:52;1.42;;;1.05;;
27365;SDS011;14837;57.148;-2.144;2024-01-06T07:29:19;1.08;;;0.98;;
27365;SDS011;14837;57.148;-2.144;2024-01-06T07:31:46;1.70;;;0.95;;
27365;SDS011;14837;57.148;-2.144;2024-01-06T07:34:13;2.33;;;0.98;;
27365;SDS011;14837;57.148;-2.144;2024-01-06T07:36:40;1.25;;;0.68;;
27365;SDS011;14837;57.148;-2.144;2024-01-06T07:39:07;2.00;;;1.08;;
27365;SDS011;14837;57.148;-2.144;2024-01-06T07:41:34;0.70;;;0.68;;
27365;SDS011;14837;57.148;-2.144;2024-01-06T07:44:00;1.70;;;0.85;;
27365;SDS011;14837;57.148;-2.144;2024-01-06T07:46:28;3.15;;;1.13;;
27365;SDS011;14837;57.148;-2.144;2024-01-06T07:48:56;2.10;;;1.40;;
27365;SDS011;14837;57.148;-2.144;2024-01-06T07:51:22;1.55;;;0.88;;
27365;SDS011;14837;57.148;-2.144;2024-01-06T07:53:49;2.22;;;1.08;;
27365;SDS011;14837;57.148;-2.144;2024-01-06T07:56:16;1.75;;;1.05;;
27365;SDS011;14837;57.148;-2.144;2024-01-06T07:58:43;1.83;;;0.90;;
27365;SDS011;14837;57.148;-2.144;2024-01-06T08:01:09;1.40;;;1.10;;
27365;SDS011;14837;57.148;-2.144;2024-01-06T08:03:36;3.28;;;1.40;;
27365;SDS011;14837;57.148;-2.144;2024-01-06T08:06:03;1.83;;;1.10;;
27365;SDS011;14837;57.148;-2.144;2024-01-06T08:08:29;2.40;;;1.40;;
27365;SDS011;14837;57.148;-2.144;2024-01-06T08:10:56;2.97;;;1.17;;
27365;SDS011;14837;57.148;-2.144;2024-01-06T08:13:22;2.67;;;0.98;;
27365;SDS011;14837;57.148;-2.144;2024-01-06T08:15:49;3.40;;;1.20;;
27365;SDS011;14837;57.148;-2.144;2024-01-06T08:18:17;5.38;;;1.50;;
27365;SDS011;14837;57.148;-2.144;2024-01-06T08:20:44;2.10;;;1.13;;
27365;SDS011;14837;57.148;-2.144;2024-01-06T08:23:11;1.50;;;1.40;;
27365;SDS011;14837;57.148;-2.144;2024-01-06T08:25:37;3.33;;;1.42;;
27365;SDS011;14837;57.148;-2.144;2024-01-06T08:28:04;2.90;;;1.00;;
27365;SDS011;14837;57.148;-2.144;2024-01-06T08:30:31;1.35;;;0.95;;
27365;SDS011;14837;57.148;-2.144;2024-01-06T08:32:57;1.27;;;0.90;;
27365;SDS011;14837;57.148;-2.144;2024-01-06T08:35:26;1.30;;;0.90;;
27365;SDS011;14837;57.148;-2.144;2024-01-06T08:37:52;2.17;;;1.00;;
27365;SDS011;14837;57.148;-2.144;2024-01-06T08:40:19;2.35;;;0.88;;
27365;SDS011;14837;57.148;-2.144;2024-01-06T08:42:45;1.50;;;0.80;;
27365;SDS011;14837;57.148;-2.144;2024-01-06T08:45:12;1.50;;;0.90;;
27365;SDS011;14837;57.148;-2.144;2024-01-06T08:47:39;4.40;;;1.30;;
27365;SDS011;14837;57.148;-2.144;2024-01-06T08:50:06;4.75;;;1.35;;
27365;SDS011;14837;57.148;-2.144;2024-01-06T08:52:33;1.17;;;0.90;;
27365;SDS011;14837;57.148;-2.144;2024-01-06T08:55:00;1.80;;;0.90;;
27365;SDS011;14837;57.148;-2.144;2024-01-06T08:57:26;3.63;;;1.38;;
27365;SDS011;14837;57.148;-2.144;2024-01-06T08:59:53;2.08;;;0.90;;
27365;SDS011;14837;57.148;-2.144;2024-01-06T09:02:20;2.25;;;1.17;;
27365;SDS011;14837;57.148;-2.144;2024-01-06T09:04:46;3.38;;;1.35;;
27365;SDS011;14837;57.148;-2.144;2024-01-06T09:07:13;1.27;;;0.98;;
27365;SDS011;14837;57.148;-2.144;2024-01-06T09:09:39;1.02;;;0.75;;
27365;SDS011;14837;57.148;-2.144;2024-01-06T09:12:06;1.00;;;0.90;;
27365;SDS011;14837;57.148;-2.144;2024-01-06T09:14:32;1.38;;;0.80;;
27365;SDS011;14837;57.148;-2.144;2024-01-06T09:16:59;2.85;;;1.05;;
27365;SDS011;14837;57.148;-2.144;2024-01-06T09:19:26;1.65;;;0.88;;
27365;SDS011;14837;57.148;-2.144;2024-01-06T09:21:54;5.88;;;1.20;;
27365;SDS011;14837;57.148;-2.144;2024-01-06T09:24:21;1.65;;;1.20;;
27365;SDS011;14837;57.148;-2.144;2024-01-06T09:26:48;4.63;;;1.63;;
27365;SDS011;14837;57.148;-2.144;2024-01-06T09:29:16;4.82;;;2.42;;
27365;SDS011;14837;57.148;-2.144;2024-01-06T09:31:43;2.95;;;1.85;;
27365;SDS011;14837;57.148;-2.144;2024-01-06T09:34:10;2.25;;;1.30;;
27365;SDS011;14837;57.148;-2.144;2024-01-06T09:36:36;2.63;;;1.20;;
27365;SDS011;14837;57.148;-2.144;2024-01-06T09:39:03;3.78;;;1.25;;
27365;SDS011;14837;57.148;-2.144;2024-01-06T09:41:33;5.00;;;1.25;;
27365;SDS011;14837;57.148;-2.144;2024-01-06T09:44:00;3.72;;;1.27;;
27365;SDS011;14837;57.148;-2.144;2024-01-06T09:46:27;1.88;;;1.20;;
27365;SDS011;14837;57.148;-2.144;2024-01-06T09:48:55;4.25;;;1.10;;
27365;SDS011;14837;57.148;-2.144;2024-01-06T09:51:22;1.40;;;1.08;;
27365;SDS011;14837;57.148;-2.144;2024-01-06T09:54:00;4.00;;;1.45;;
27365;SDS011;14837;57.148;-2.144;2024-01-06T09:56:27;3.38;;;1.17;;
27365;SDS011;14837;57.148;-2.144;2024-01-06T09:58:54;4.20;;;1.55;;
27365;SDS011;14837;57.148;-2.144;2024-01-06T10:01:21;2.20;;;1.40;;
27365;SDS011;14837;57.148;-2.144;2024-01-06T10:03:48;5.50;;;1.77;;
27365;SDS011;14837;57.148;-2.144;2024-01-06T10:06:15;5.55;;;2.17;;
27365;SDS011;14837;57.148;-2.144;2024-01-06T10:08:51;9.57;;;3.40;;
27365;SDS011;14837;57.148;-2.144;2024-01-06T10:11:18;4.75;;;2.03;;
27365;SDS011;14837;57.148;-2.144;2024-01-06T10:13:45;1.52;;;1.40;;
27365;SDS011;14837;57.148;-2.144;2024-01-06T10:16:12;2.63;;;1.60;;
27365;SDS011;14837;57.148;-2.144;2024-01-06T10:18:38;1.98;;;1.30;;
27365;SDS011;14837;57.148;-2.144;2024-01-06T10:21:05;4.63;;;1.30;;
27365;SDS011;14837;57.148;-2.144;2024-01-06T10:23:32;3.35;;;1.52;;
27365;SDS011;14837;57.148;-2.144;2024-01-06T10:25:59;1.50;;;1.10;;
27365;SDS011;14837;57.148;-2.144;2024-01-06T10:28:30;1.83;;;0.90;;
27365;SDS011;14837;57.148;-2.144;2024-01-06T10:30:57;2.20;;;1.15;;
27365;SDS011;14837;57.148;-2.144;2024-01-06T10:33:25;2.15;;;0.90;;
27365;SDS011;14837;57.148;-2.144;2024-01-06T10:35:52;1.50;;;1.00;;
27365;SDS011;14837;57.148;-2.144;2024-01-06T10:38:19;2.95;;;1.00;;
27365;SDS011;14837;57.148;-2.144;2024-01-06T10:40:58;3.50;;;1.45;;
27365;SDS011;14837;57.148;-2.144;2024-01-06T10:43:25;3.38;;;0.82;;
27365;SDS011;14837;57.148;-2.144;2024-01-06T10:45:55;2.15;;;1.17;;
27365;SDS011;14837;57.148;-2.144;2024-01-06T10:48:24;3.30;;;1.02;;
27365;SDS011;14837;57.148;-2.144;2024-01-06T10:50:51;3.63;;;1.17;;
27365;SDS011;14837;57.148;-2.144;2024-01-06T10:53:20;2.13;;;1.15;;
27365;SDS011;14837;57.148;-2.144;2024-01-06T10:55:47;2.72;;;1.10;;
27365;SDS011;14837;57.148;-2.144;2024-01-06T10:58:18;4.50;;;1.10;;
27365;SDS011;14837;57.148;-2.144;2024-01-06T11:00:45;4.90;;;1.42;;
27365;SDS011;14837;57.148;-2.144;2024-01-06T11:03:13;3.08;;;1.20;;
27365;SDS011;14837;57.148;-2.144;2024-01-06T11:05:40;2.65;;;1.42;;
27365;SDS011;14837;57.148;-2.144;2024-01-06T11:08:07;2.85;;;0.90;;
27365;SDS011;14837;57.148;-2.144;2024-01-06T11:10:34;3.53;;;0.93;;
27365;SDS011;14837;57.148;-2.144;2024-01-06T11:13:12;1.35;;;0.95;;
27365;SDS011;14837;57.148;-2.144;2024-01-06T11:15:40;2.88;;;1.00;;
27365;SDS011;14837;57.148;-2.144;2024-01-06T11:18:07;2.53;;;0.88;;
27365;SDS011;14837;57.148;-2.144;2024-01-06T11:20:34;2.35;;;0.90;;
27365;SDS011;14837;57.148;-2.144;2024-01-06T11:23:19;4.70;;;1.40;;
27365;SDS011;14837;57.148;-2.144;2024-01-06T11:25:48;2.22;;;1.30;;
27365;SDS011;14837;57.148;-2.144;2024-01-06T11:28:16;2.28;;;1.25;;
27365;SDS011;14837;57.148;-2.144;2024-01-06T11:30:42;2.25;;;1.10;;
27365;SDS011;14837;57.148;-2.144;2024-01-06T11:33:09;3.03;;;0.85;;
27365;SDS011;14837;57.148;-2.144;2024-01-06T11:35:37;3.22;;;1.10;;
27365;SDS011;14837;57.148;-2.144;2024-01-06T11:38:06;2.90;;;2.50;;
27365;SDS011;14837;57.148;-2.144;2024-01-06T11:40:33;3.25;;;1.33;;
27365;SDS011;14837;57.148;-2.144;2024-01-06T11:43:10;3.42;;;1.40;;
27365;SDS011;14837;57.148;-2.144;2024-01-06T11:45:40;2.17;;;1.30;;
27365;SDS011;14837;57.148;-2.144;2024-01-06T11:48:08;3.50;;;1.23;;
27365;SDS011;14837;57.148;-2.144;2024-01-06T11:50:36;3.20;;;2.45;;
27365;SDS011;14837;57.148;-2.144;2024-01-06T11:53:03;2.35;;;1.27;;
27365;SDS011;14837;57.148;-2.144;2024-01-06T11:55:31;3.03;;;0.98;;
27365;SDS011;14837;57.148;-2.144;2024-01-06T11:57:59;2.78;;;1.08;;
27365;SDS011;14837;57.148;-2.144;2024-01-06T12:00:30;3.50;;;1.90;;
27365;SDS011;14837;57.148;-2.144;2024-01-06T12:02:58;2.28;;;1.40;;
27365;SDS011;14837;57.148;-2.144;2024-01-06T12:05:25;1.98;;;1.35;;
27365;SDS011;14837;57.148;-2.144;2024-01-06T12:07:56;1.75;;;0.82;;
27365;SDS011;14837;57.148;-2.144;2024-01-06T12:10:24;4.50;;;1.27;;
27365;SDS011;14837;57.148;-2.144;2024-01-06T12:13:00;2.78;;;1.05;;
27365;SDS011;14837;57.148;-2.144;2024-01-06T12:15:28;2.75;;;1.25;;
27365;SDS011;14837;57.148;-2.144;2024-01-06T12:17:55;4.15;;;1.20;;
27365;SDS011;14837;57.148;-2.144;2024-01-06T12:20:23;1.83;;;1.08;;
27365;SDS011;14837;57.148;-2.144;2024-01-06T12:22:52;1.42;;;0.73;;
27365;SDS011;14837;57.148;-2.144;2024-01-06T12:25:22;2.35;;;1.15;;
27365;SDS011;14837;57.148;-2.144;2024-01-06T12:27:49;5.32;;;1.55;;
27365;SDS011;14837;57.148;-2.144;2024-01-06T12:30:16;3.42;;;1.15;;
27365;SDS011;14837;57.148;-2.144;2024-01-06T12:32:45;3.25;;;1.05;;
27365;SDS011;14837;57.148;-2.144;2024-01-06T12:35:13;5.57;;;1.23;;
27365;SDS011;14837;57.148;-2.144;2024-01-06T12:37:43;2.17;;;1.17;;
27365;SDS011;14837;57.148;-2.144;2024-01-06T12:40:11;2.47;;;1.10;;
27365;SDS011;14837;57.148;-2.144;2024-01-06T12:42:39;2.00;;;1.13;;
27365;SDS011;14837;57.148;-2.144;2024-01-06T12:45:06;2.17;;;0.98;;
27365;SDS011;14837;57.148;-2.144;2024-01-06T12:47:32;2.65;;;0.98;;
27365;SDS011;14837;57.148;-2.144;2024-01-06T12:49:59;2.53;;;1.00;;
27365;SDS011;14837;57.148;-2.144;2024-01-06T12:52:26;1.70;;;1.10;;
27365;SDS011;14837;57.148;-2.144;2024-01-06T12:54:52;3.20;;;1.08;;
27365;SDS011;14837;57.148;-2.144;2024-01-06T12:57:19;3.10;;;1.27;;
27365;SDS011;14837;57.148;-2.144;2024-01-06T12:59:45;3.83;;;0.82;;
27365;SDS011;14837;57.148;-2.144;2024-01-06T13:02:12;2.25;;;1.02;;
27365;SDS011;14837;57.148;-2.144;2024-01-06T13:04:38;1.48;;;0.98;;
27365;SDS011;14837;57.148;-2.144;2024-01-06T13:07:05;1.95;;;1.15;;
27365;SDS011;14837;57.148;-2.144;2024-01-06T13:09:32;3.72;;;1.30;;
27365;SDS011;14837;57.148;-2.144;2024-01-06T13:11:59;3.30;;;1.13;;
27365;SDS011;14837;57.148;-2.144;2024-01-06T13:14:27;3.15;;;1.40;;
27365;SDS011;14837;57.148;-2.144;2024-01-06T13:16:53;2.33;;;1.33;;
27365;SDS011;14837;57.148;-2.144;2024-01-06T13:19:20;1.88;;;1.17;;
27365;SDS011;14837;57.148;-2.144;2024-01-06T13:21:48;4.80;;;1.00;;
27365;SDS011;14837;57.148;-2.144;2024-01-06T13:24:14;1.42;;;0.90;;
27365;SDS011;14837;57.148;-2.144;2024-01-06T13:26:41;2.53;;;1.20;;
27365;SDS011;14837;57.148;-2.144;2024-01-06T13:29:08;3.00;;;1.05;;
27365;SDS011;14837;57.148;-2.144;2024-01-06T13:31:34;1.58;;;1.10;;
27365;SDS011;14837;57.148;-2.144;2024-01-06T13:34:01;3.88;;;1.13;;
27365;SDS011;14837;57.148;-2.144;2024-01-06T13:36:28;2.55;;;1.10;;
27365;SDS011;14837;57.148;-2.144;2024-01-06T13:38:54;4.80;;;1.23;;
27365;SDS011;14837;57.148;-2.144;2024-01-06T13:41:21;4.45;;;1.13;;
27365;SDS011;14837;57.148;-2.144;2024-01-06T13:43:47;3.65;;;1.40;;
27365;SDS011;14837;57.148;-2.144;2024-01-06T13:46:15;2.20;;;0.95;;
27365;SDS011;14837;57.148;-2.144;2024-01-06T13:48:41;2.85;;;1.00;;
27365;SDS011;14837;57.148;-2.144;2024-01-06T13:51:08;5.57;;;1.63;;
27365;SDS011;14837;57.148;-2.144;2024-01-06T13:53:35;3.38;;;1.40;;
27365;SDS011;14837;57.148;-2.144;2024-01-06T13:56:01;3.55;;;1.80;;
27365;SDS011;14837;57.148;-2.144;2024-01-06T13:58:29;4.80;;;1.70;;
27365;SDS011;14837;57.148;-2.144;2024-01-06T14:00:55;1.88;;;1.42;;
27365;SDS011;14837;57.148;-2.144;2024-01-06T14:03:22;2.47;;;1.48;;
27365;SDS011;14837;57.148;-2.144;2024-01-06T14:05:49;1.73;;;1.00;;
27365;SDS011;14837;57.148;-2.144;2024-01-06T14:08:17;2.63;;;2.15;;
27365;SDS011;14837;57.148;-2.144;2024-01-06T14:10:44;2.97;;;1.10;;
27365;SDS011;14837;57.148;-2.144;2024-01-06T14:13:11;1.85;;;1.13;;
27365;SDS011;14837;57.148;-2.144;2024-01-06T14:15:38;2.70;;;1.50;;
27365;SDS011;14837;57.148;-2.144;2024-01-06T14:18:05;2.03;;;1.00;;
27365;SDS011;14837;57.148;-2.144;2024-01-06T14:20:31;3.38;;;1.30;;
27365;SDS011;14837;57.148;-2.144;2024-01-06T14:23:01;3.45;;;1.55;;
27365;SDS011;14837;57.148;-2.144;2024-01-06T14:25:27;5.05;;;1.17;;
27365;SDS011;14837;57.148;-2.144;2024-01-06T14:27:54;4.70;;;1.95;;
27365;SDS011;14837;57.148;-2.144;2024-01-06T14:30:20;4.07;;;1.23;;
27365;SDS011;14837;57.148;-2.144;2024-01-06T14:32:47;1.65;;;0.90;;